LHDC 020515Z AUTO 26005KT 220V280 CAVOK 11/09 Q1015 NOSIG
From batch tds/metars/production/2022/10/2/h05_m49_metars.cache.csv.gz
Observed at (about 1 hour ago)
Identifier LHDC
LHDC 020445Z AUTO 28007KT CAVOK 11/09 Q1015 NOSIG
From batch tds/metars/production/2022/10/2/h05_m24_metars.cache.csv.gz
Observed at (about 1 hour ago)
Identifier LHDC
LHDC 020415Z AUTO 27004KT 230V320 CAVOK 11/09 Q1014 NOSIG
From batch tds/metars/production/2022/10/2/h04_m54_metars.cache.csv.gz
Observed at (about 2 hours ago)
Identifier LHDC
LHDC 020345Z AUTO 27003KT 240V320 CAVOK 11/09 Q1014 NOSIG
From batch tds/metars/production/2022/10/2/h04_m25_metars.cache.csv.gz
Observed at (about 2 hours ago)
Identifier LHDC
LHDC 020315Z AUTO 28006KT CAVOK 11/10 Q1013 NOSIG
From batch tds/metars/production/2022/10/2/h03_m55_metars.cache.csv.gz
Observed at (about 3 hours ago)
Identifier LHDC
LHDC 020245Z AUTO 28009KT CAVOK 12/10 Q1013 NOSIG
From batch tds/metars/production/2022/10/2/h03_m29_metars.cache.csv.gz
Observed at (about 3 hours ago)
Identifier LHDC
LHDC 020215Z AUTO 28010KT CAVOK 12/10 Q1013 NOSIG
From batch tds/metars/production/2022/10/2/h02_m59_metars.cache.csv.gz
Observed at (about 4 hours ago)
Identifier LHDC
LHDC 020145Z AUTO 27011KT CAVOK 12/10 Q1012 NOSIG
From batch tds/metars/production/2022/10/2/h02_m29_metars.cache.csv.gz
Observed at (about 4 hours ago)
Identifier LHDC
LHDC 020115Z AUTO 26011KT CAVOK 13/11 Q1012 NOSIG
From batch tds/metars/production/2022/10/2/h01_m58_metars.cache.csv.gz
Observed at (about 5 hours ago)
Identifier LHDC
LHDC 020045Z AUTO 26011KT 230V300 CAVOK 13/11 Q1012 NOSIG
From batch tds/metars/production/2022/10/2/h01_m29_metars.cache.csv.gz
Observed at (about 5 hours ago)
Identifier LHDC
LHDC 020015Z AUTO 26013KT CAVOK 14/11 Q1011 NOSIG
From batch tds/metars/production/2022/10/2/h00_m59_metars.cache.csv.gz
Observed at (about 6 hours ago)
Identifier LHDC
LHDC 012345Z AUTO 26010KT 230V290 CAVOK 14/11 Q1011 NOSIG
From batch tds/metars/production/2022/10/2/h00_m21_metars.cache.csv.gz
Observed at (about 6 hours ago)
Identifier LHDC
LHDC 012245Z AUTO 25011KT 9999 -SHRA NSC 15/12 Q1011 NOSIG
From batch tds/metars/production/2022/10/1/h23_m23_metars.cache.csv.gz
Observed at (about 7 hours ago)
Identifier LHDC
LHDC 012016Z AUTO 23010KT 9999 BKN008 16/16 Q1010
From batch tds/metars/production/2022/10/1/h20_m27_metars.cache.csv.gz
Observed at (about 10 hours ago)
Identifier LHDC
LHDC 011715Z AUTO 17006KT CAVOK 16/16 Q1010 NOSIG
From batch tds/metars/production/2022/10/1/h17_m58_metars.cache.csv.gz
Observed at (about 13 hours ago)
Identifier LHDC
LHDC 011645Z AUTO 15005KT 120V180 CAVOK 17/15 Q1010 NOSIG
From batch tds/metars/production/2022/10/1/h17_m24_metars.cache.csv.gz
Observed at (about 13 hours ago)
Identifier LHDC
LHDC 011633Z AUTO 15004KT 090V190 CAVOK 17/15 Q1010
From batch tds/metars/production/2022/10/1/h16_m56_metars.cache.csv.gz
Observed at (about 14 hours ago)
Identifier LHDC
LHDC 011545Z AUTO 15004KT CAVOK 17/16 Q1010 NOSIG
From batch tds/metars/production/2022/10/1/h16_m29_metars.cache.csv.gz
Observed at (about 14 hours ago)
Identifier LHDC
LHDC 011515Z AUTO 14006KT CAVOK 17/16 Q1010 NOSIG
From batch tds/metars/production/2022/10/1/h15_m59_metars.cache.csv.gz
Observed at (about 15 hours ago)
Identifier LHDC
LHDC 011445Z AUTO 14004KT 9999 FEW033 17/16 Q1011 NOSIG
From batch tds/metars/production/2022/10/1/h15_m21_metars.cache.csv.gz
Observed at (about 15 hours ago)
Identifier LHDC
LHDC 011115Z AUTO 19003KT 120V220 CAVOK 20/16 Q1014 NOSIG
From batch tds/metars/production/2022/10/1/h11_m59_metars.cache.csv.gz
Observed at (about 19 hours ago)
Identifier LHDC
LHDC 011045Z AUTO 22006KT 190V250 CAVOK 20/16 Q1015 NOSIG
From batch tds/metars/production/2022/10/1/h11_m19_metars.cache.csv.gz
Observed at (about 19 hours ago)
Identifier LHDC
LHDC 011015Z AUTO 23009KT 190V250 CAVOK 20/16 Q1015 NOSIG
From batch tds/metars/production/2022/10/1/h10_m54_metars.cache.csv.gz
Observed at (about 20 hours ago)
Identifier LHDC
LHDC 010945Z AUTO 21007KT 170V250 CAVOK 19/16 Q1015 NOSIG
From batch tds/metars/production/2022/10/1/h10_m25_metars.cache.csv.gz
Observed at (about 20 hours ago)
Identifier LHDC
LHDC 010915Z AUTO 19005KT 140V230 CAVOK 18/15 Q1015 NOSIG
From batch tds/metars/production/2022/10/1/h09_m50_metars.cache.csv.gz
Observed at (about 21 hours ago)
Identifier LHDC
LHDC 010845Z AUTO 18005KT 150V210 CAVOK 17/15 Q1015 NOSIG
From batch tds/metars/production/2022/10/1/h09_m19_metars.cache.csv.gz
Observed at (about 21 hours ago)
Identifier LHDC
LHDC 010715Z AUTO 09003KT CAVOK 16/15 Q1015 NOSIG
From batch tds/metars/production/2022/10/1/h07_m59_metars.cache.csv.gz
Observed at (about 23 hours ago)
Identifier LHDC
LHDC 010645Z AUTO 05003KT CAVOK 16/15 Q1016 NOSIG
From batch tds/metars/production/2022/10/1/h07_m29_metars.cache.csv.gz
Observed at (about 23 hours ago)
Identifier LHDC
LHDC 010615Z AUTO 02004KT 350V060 CAVOK 15/14 Q1016 NOSIG
From batch tds/metars/production/2022/10/1/h06_m55_metars.cache.csv.gz
Observed at (about 24 hours ago)
Identifier LHDC
talk